Terminal Aerodrome Forecast
Issued by NWS Oklahoma City, OK

Home | Current Version | Previous Version | Text Only | Print | Product List | Glossary On
Versions: 1 2 3 4 5 6 7 8 9 10 11 12 13 14 15 16 17 18 19 20 21 22 23 24 25 26
000
FTUS44 KOUN 232320
TAFOUN
TAF
KOUN 232320Z 2400/2424 18026G35KT P6SM SCT200
     FM240600 18022G31KT P6SM BKN050
     FM241000 18020KT P6SM BKN015
     FM241400 19025G37KT P6SM SCT250=

USA.gov is the U.S. government's official web portal to all federal, state and local government web resources and services.